Time;durP1;ratioP1;P1;durP2;ratioP2;P2;SDS_P1;SDS_P2;PMS_P1;PMS_P2;Temp;Humidity;BMP_temperature;BMP_pressure;BME280_temperature;BME280_humidity;BME280_pressure;Samples;Min_cycle;Max_cycle;Signal;HPM_P1;HPM_P2
2022/09/02 00:01:36;;;;;;;7.22;4.68;;;18.90;76.10;;;;;;5075267;28;20105;-12
2022/09/02 00:04:06;;;;;;;10.20;5.63;;;18.90;76.20;;;;;;5075686;28;20036;-11
2022/09/02 00:06:34;;;;;;;8.60;5.50;;;18.90;76.20;;;;;;5075592;28;20028;-11
2022/09/02 00:09:00;;;;;;;5.60;4.00;;;18.80;76.20;;;;;;5075232;28;20024;-11
2022/09/02 00:11:31;;;;;;;6.28;4.35;;;18.90;76.10;;;;;;5075603;28;20020;-11
2022/09/02 00:14:04;;;;;;;7.53;4.85;;;18.80;76.10;;;;;;5075276;28;20112;-11
2022/09/02 00:16:32;;;;;;;10.20;5.20;;;18.70;76.40;;;;;;5075762;28;20067;-12
2022/09/02 00:19:01;;;;;;;8.70;4.55;;;18.70;76.70;;;;;;5074917;28;20259;-12
2022/09/02 00:21:28;;;;;;;7.40;4.97;;;18.60;76.60;;;;;;5074948;28;20028;-12
2022/09/02 00:23:54;;;;;;;7.68;4.63;;;18.60;76.50;;;;;;5075062;28;20031;-11
2022/09/02 00:26:20;;;;;;;7.63;4.43;;;18.60;76.50;;;;;;5074976;28;20021;-11
2022/09/02 00:28:46;;;;;;;5.47;4.07;;;18.60;76.40;;;;;;5074983;28;20028;-11
2022/09/02 00:31:14;;;;;;;5.18;4.18;;;18.50;76.50;;;;;;5074912;28;20028;-12
2022/09/02 00:33:40;;;;;;;5.53;4.65;;;18.50;76.50;;;;;;5075060;28;20067;-12
2022/09/02 00:36:07;;;;;;;8.02;5.97;;;18.40;76.50;;;;;;5074743;28;20032;-11
2022/09/02 00:38:34;;;;;;;7.25;4.78;;;18.40;76.70;;;;;;5075079;28;20033;-11
2022/09/02 00:41:04;;;;;;;8.55;5.97;;;18.40;76.80;;;;;;5074503;28;20032;-11
2022/09/02 00:43:53;;;;;;;7.43;5.68;;;18.40;77.60;;;;;;5074630;28;20476;-11
2022/09/02 00:46:23;;;;;;;8.80;6.07;;;18.40;78.70;;;;;;5074496;28;20020;-12
2022/09/02 00:48:58;;;;;;;8.23;5.38;;;18.40;78.80;;;;;;5074327;28;20392;-11
2022/09/02 00:51:29;;;;;;;7.20;4.68;;;18.30;77.90;;;;;;5074754;28;20055;-11
2022/09/02 00:53:55;;;;;;;7.13;4.80;;;18.30;77.50;;;;;;5074789;28;20165;-11
2022/09/02 00:56:28;;;;;;;6.57;5.18;;;18.30;77.50;;;;;;5074687;28;20436;-12
2022/09/02 00:58:55;;;;;;;6.70;5.20;;;18.30;77.40;;;;;;5073953;28;20048;-12
2022/09/02 01:01:21;;;;;;;7.47;5.43;;;18.30;77.60;;;;;;5075146;28;20032;-11
2022/09/02 01:03:49;;;;;;;9.88;6.28;;;18.30;77.40;;;;;;5074215;28;20032;-11
2022/09/02 01:06:20;;;;;;;9.98;7.38;;;18.30;77.50;;;;;;5074084;28;20032;-12
2022/09/02 01:08:53;;;;;;;8.25;5.60;;;18.20;77.60;;;;;;5074187;28;20032;-12
2022/09/02 01:11:20;;;;;;;6.60;4.63;;;18.20;78.10;;;;;;5074044;28;20075;-11
2022/09/02 01:13:46;;;;;;;10.27;6.30;;;18.20;77.70;;;;;;5074547;28;20095;-11
2022/09/02 01:16:23;;;;;;;5.68;4.70;;;18.10;77.90;;;;;;5073979;28;20507;-11
2022/09/02 01:18:52;;;;;;;5.30;4.57;;;18.10;78.10;;;;;;5074014;28;20021;-12
2022/09/02 01:21:18;;;;;;;6.50;4.80;;;18.10;77.80;;;;;;5073830;28;20036;-11
2022/09/02 01:23:46;;;;;;;7.70;4.93;;;18.00;77.80;;;;;;5074265;28;20059;-11
2022/09/02 01:26:12;;;;;;;5.70;4.07;;;18.00;77.70;;;;;;5073797;28;20464;-12
2022/09/02 01:28:39;;;;;;;6.07;4.65;;;18.00;77.70;;;;;;5072551;28;20040;-12
2022/09/02 01:31:05;;;;;;;8.27;5.05;;;18.00;77.80;;;;;;5073445;28;20024;-11
2022/09/02 01:33:31;;;;;;;6.68;5.07;;;18.00;77.80;;;;;;5073660;28;20031;-10
2022/09/02 01:35:58;;;;;;;8.82;5.22;;;18.00;77.70;;;;;;5073866;28;20029;-11
2022/09/02 01:38:25;;;;;;;8.95;5.82;;;17.90;77.70;;;;;;5073877;28;20032;-12
2022/09/02 01:40:51;;;;;;;7.32;5.68;;;17.90;77.80;;;;;;5073254;28;20156;-12
2022/09/02 01:43:23;;;;;;;8.80;5.35;;;17.90;77.80;;;;;;5073478;28;20029;-12
2022/09/02 01:45:53;;;;;;;6.18;5.28;;;17.90;77.70;;;;;;5073540;28;20109;-11
2022/09/02 01:48:20;;;;;;;7.60;5.68;;;17.90;77.60;;;;;;5074267;28;20112;-11
2022/09/02 01:50:53;;;;;;;7.40;5.22;;;17.90;77.70;;;;;;5073391;28;20042;-10
2022/09/02 01:53:19;;;;;;;6.80;5.03;;;17.90;77.60;;;;;;5073416;28;20032;-11
2022/09/02 01:55:46;;;;;;;7.95;5.22;;;17.90;77.60;;;;;;5073351;28;20021;-11
2022/09/02 01:58:12;;;;;;;6.97;4.93;;;17.90;77.60;;;;;;5072546;28;20056;-12
2022/09/02 02:00:38;;;;;;;9.02;5.68;;;17.90;77.60;;;;;;5073029;28;20492;-12
2022/09/02 02:03:05;;;;;;;6.55;4.90;;;17.90;77.70;;;;;;5073401;28;20036;-12
2022/09/02 02:05:32;;;;;;;6.20;4.53;;;17.90;77.70;;;;;;5074361;28;20025;-12
2022/09/02 02:07:59;;;;;;;5.78;4.45;;;17.90;77.70;;;;;;5073108;28;20071;-12
2022/09/02 02:10:26;;;;;;;8.32;4.57;;;17.90;77.60;;;;;;5073197;28;20033;-12
2022/09/02 02:12:51;;;;;;;9.13;4.40;;;17.90;77.60;;;;;;5072923;28;20029;-11
2022/09/02 02:15:19;;;;;;;6.95;4.35;;;17.90;77.50;;;;;;5073392;28;20033;-12
2022/09/02 02:17:45;;;;;;;4.72;4.13;;;17.90;77.60;;;;;;5073142;28;20540;-13
2022/09/02 02:20:16;;;;;;;5.30;4.10;;;17.90;77.60;;;;;;5073379;28;20047;-12
2022/09/02 02:22:43;;;;;;;4.65;4.00;;;17.90;77.50;;;;;;5073029;28;20039;-12
2022/09/02 02:25:11;;;;;;;8.23;5.50;;;17.90;77.50;;;;;;5073026;28;20111;-12
2022/09/02 02:27:37;;;;;;;6.43;4.75;;;17.90;78.30;;;;;;5073005;28;20380;-12
2022/09/02 02:30:06;;;;;;;7.88;5.40;;;17.90;78.40;;;;;;5072984;28;20027;-11
2022/09/02 02:32:32;;;;;;;7.45;4.28;;;17.90;78.40;;;;;;5073241;28;20021;-12
2022/09/02 02:34:58;;;;;;;7.90;4.45;;;17.90;78.50;;;;;;5072723;28;20035;-11
2022/09/02 02:37:24;;;;;;;13.50;7.53;;;17.80;78.20;;;;;;5071637;28;20074;-12
2022/09/02 02:39:50;;;;;;;7.35;4.95;;;17.80;78.40;;;;;;5072939;28;20071;-11
2022/09/02 02:42:16;;;;;;;9.65;5.18;;;17.80;78.40;;;;;;5072973;28;20060;-12
2022/09/02 02:44:42;;;;;;;7.15;5.30;;;17.80;78.40;;;;;;5072801;28;20400;-12
2022/09/02 02:47:09;;;;;;;9.43;5.63;;;17.70;78.50;;;;;;5071366;28;20500;-13
2022/09/02 02:49:40;;;;;;;8.23;5.60;;;17.70;78.40;;;;;;5072779;28;20075;-12
2022/09/02 02:52:07;;;;;;;7.95;5.38;;;17.70;78.40;;;;;;5072975;28;20025;-12
2022/09/02 02:54:33;;;;;;;10.90;6.70;;;17.70;78.60;;;;;;5072994;28;20431;-12
2022/09/02 02:57:00;;;;;;;9.93;7.20;;;17.70;80.20;;;;;;5071298;28;20495;-12
2022/09/02 02:59:26;;;;;;;9.00;6.03;;;17.60;81.00;;;;;;5072526;28;20036;-13
2022/09/02 03:01:52;;;;;;;10.43;7.25;;;17.60;79.80;;;;;;5072802;28;20028;-12
2022/09/02 03:04:18;;;;;;;8.95;6.82;;;17.60;80.60;;;;;;5072634;28;20072;-12
2022/09/02 03:06:44;;;;;;;11.73;7.68;;;17.60;80.60;;;;;;5073410;28;20049;-12
2022/09/02 03:09:10;;;;;;;9.73;7.00;;;17.50;80.80;;;;;;5072395;28;20411;-12
2022/09/02 03:11:36;;;;;;;9.15;6.85;;;17.40;81.00;;;;;;5076109;28;20059;-12
2022/09/02 03:14:02;;;;;;;8.77;6.97;;;17.40;81.30;;;;;;5076363;28;20476;-13
2022/09/02 03:16:29;;;;;;;10.10;7.32;;;17.40;81.50;;;;;;5076583;28;20109;-12
2022/09/02 03:18:54;;;;;;;10.55;7.82;;;17.40;81.50;;;;;;5076335;28;20485;-12
2022/09/02 03:21:21;;;;;;;8.93;6.45;;;17.30;82.40;;;;;;5076333;28;20059;-12
2022/09/02 03:23:48;;;;;;;9.25;6.82;;;17.30;81.60;;;;;;5076758;28;20021;-11
2022/09/02 03:26:18;;;;;;;13.15;6.97;;;17.30;81.40;;;;;;5076426;28;20047;-12
2022/09/02 03:28:46;;;;;;;10.32;7.00;;;17.20;81.60;;;;;;5076097;28;20365;-11
2022/09/02 03:31:16;;;;;;;8.95;6.25;;;17.20;81.40;;;;;;5076356;28;20500;-12
2022/09/02 03:33:42;;;;;;;8.73;6.32;;;17.10;81.40;;;;;;5076326;28;20024;-12
2022/09/02 03:36:18;;;;;;;9.80;7.30;;;17.10;81.60;;;;;;5075897;28;20173;-11
2022/09/02 03:38:44;;;;;;;13.32;7.32;;;17.10;81.40;;;;;;5076227;28;20027;-12
2022/09/02 03:41:10;;;;;;;12.07;8.52;;;17.10;82.10;;;;;;5075578;28;20032;-11
2022/09/02 03:43:36;;;;;;;11.95;8.20;;;17.00;83.20;;;;;;5075827;28;20098;-12
2022/09/02 03:46:02;;;;;;;10.40;7.13;;;16.90;83.00;;;;;;5076087;28;20033;-12
2022/09/02 03:48:29;;;;;;;8.30;6.15;;;16.90;82.70;;;;;;5075657;28;20064;-12
2022/09/02 03:50:55;;;;;;;9.77;6.30;;;16.90;81.90;;;;;;5075462;28;20032;-12
2022/09/02 03:53:21;;;;;;;12.45;7.03;;;16.90;81.90;;;;;;5075546;28;20526;-12
2022/09/02 03:55:47;;;;;;;8.80;5.88;;;16.90;82.00;;;;;;5076107;28;20028;-11
2022/09/02 03:58:13;;;;;;;12.30;6.07;;;16.90;82.10;;;;;;5079944;28;20125;-11
2022/09/02 04:00:40;;;;;;;8.23;5.72;;;16.90;81.90;;;;;;5076736;28;20431;-12
2022/09/02 04:03:06;;;;;;;9.00;5.90;;;16.90;81.80;;;;;;5075279;28;20082;-12
2022/09/02 04:05:33;;;;;;;9.18;6.00;;;16.90;81.70;;;;;;5075663;28;20078;-12
2022/09/02 04:08:02;;;;;;;10.95;5.90;;;16.90;81.90;;;;;;5075321;28;20052;-12
2022/09/02 04:10:28;;;;;;;9.57;5.40;;;16.90;81.30;;;;;;5075452;28;20039;-11
2022/09/02 04:12:53;;;;;;;9.73;7.38;;;16.80;81.30;;;;;;5075083;28;20119;-12
2022/09/02 04:15:20;;;;;;;10.10;6.10;;;16.80;81.30;;;;;;5075765;28;20043;-12
2022/09/02 04:17:46;;;;;;;8.65;5.85;;;16.80;81.40;;;;;;5075176;28;20090;-12
2022/09/02 04:20:13;;;;;;;7.68;5.50;;;16.80;81.40;;;;;;5075354;28;20017;-11
2022/09/02 04:22:40;;;;;;;11.07;7.30;;;16.70;81.20;;;;;;5074260;28;20024;-12
2022/09/02 04:25:08;;;;;;;9.32;6.45;;;16.70;81.10;;;;;;5075202;28;20025;-13
2022/09/02 04:27:34;;;;;;;11.10;6.13;;;16.70;81.00;;;;;;5075307;28;20029;-12
2022/09/02 04:30:01;;;;;;;10.43;6.70;;;16.70;81.00;;;;;;5075305;28;20052;-12
2022/09/02 04:32:27;;;;;;;8.93;5.55;;;16.60;81.10;;;;;;5074891;28;20400;-12
2022/09/02 04:34:53;;;;;;;8.52;5.32;;;16.60;81.00;;;;;;5074638;28;20024;-12
2022/09/02 04:37:19;;;;;;;7.97;5.15;;;16.60;80.90;;;;;;5074626;28;20025;-12
2022/09/02 04:39:45;;;;;;;6.63;4.97;;;16.60;80.80;;;;;;5075132;28;20021;-11
2022/09/02 04:42:12;;;;;;;5.18;4.20;;;16.60;80.80;;;;;;5074924;28;20029;-12
2022/09/02 04:44:37;;;;;;;7.93;4.20;;;16.50;80.70;;;;;;5074959;28;20111;-11
2022/09/02 04:47:03;;;;;;;6.88;4.28;;;16.60;80.60;;;;;;5074417;28;20526;-11
2022/09/02 04:49:31;;;;;;;5.28;3.83;;;16.50;80.60;;;;;;5074564;28;20037;-12
2022/09/02 04:51:58;;;;;;;4.35;3.80;;;16.50;80.30;;;;;;5074396;28;20480;-12
2022/09/02 04:54:24;;;;;;;6.32;4.60;;;16.50;80.30;;;;;;5074768;28;20082;-11
2022/09/02 04:56:50;;;;;;;7.05;4.30;;;16.60;80.20;;;;;;5074525;28;20041;-12
2022/09/02 04:59:16;;;;;;;8.40;4.70;;;16.60;80.10;;;;;;5074185;28;20488;-12
2022/09/02 05:01:43;;;;;;;6.07;4.78;;;16.60;80.20;;;;;;5074245;28;20441;-12
2022/09/02 05:04:08;;;;;;;6.50;4.60;;;16.60;80.30;;;;;;5073092;28;20060;-11
2022/09/02 05:06:35;;;;;;;5.45;4.60;;;16.60;80.30;;;;;;5074063;28;20085;-11
2022/09/02 05:09:03;;;;;;;7.82;4.28;;;16.50;80.50;;;;;;5074288;28;20473;-11
2022/09/02 05:11:30;;;;;;;6.35;3.95;;;16.50;80.30;;;;;;5074114;28;20468;-12
2022/09/02 05:13:59;;;;;;;7.00;4.20;;;16.40;80.30;;;;;;5074051;28;20033;-12
2022/09/02 05:16:29;;;;;;;5.40;4.30;;;16.40;80.30;;;;;;5074322;28;20020;-12
2022/09/02 05:18:55;;;;;;;5.18;4.10;;;16.50;80.30;;;;;;5073676;28;20480;-11
2022/09/02 05:21:22;;;;;;;5.03;4.40;;;16.50;80.50;;;;;;5073700;28;20570;-12
2022/09/02 05:23:50;;;;;;;6.15;4.10;;;16.50;80.30;;;;;;5074179;28;20028;-12
2022/09/02 05:26:17;;;;;;;6.90;4.15;;;16.50;80.20;;;;;;5073801;28;20158;-12
2022/09/02 05:28:43;;;;;;;6.30;4.40;;;16.50;80.00;;;;;;5074099;28;20032;-13
2022/09/02 05:31:16;;;;;;;4.70;4.03;;;16.60;80.00;;;;;;5073546;28;20486;-13
2022/09/02 05:33:43;;;;;;;7.60;4.57;;;16.60;79.80;;;;;;5073711;28;20384;-11
2022/09/02 05:36:16;;;;;;;4.95;4.45;;;16.70;79.70;;;;;;5073643;28;20033;-12
2022/09/02 05:38:43;;;;;;;6.70;4.53;;;16.90;79.70;;;;;;5073932;28;20078;-12
2022/09/02 05:41:16;;;;;;;9.73;5.00;;;17.00;79.50;;;;;;5073536;28;20538;-12
2022/09/02 05:43:43;;;;;;;6.53;4.40;;;17.20;79.30;;;;;;5073916;28;20028;-12
2022/09/02 05:46:13;;;;;;;7.30;4.53;;;17.40;79.10;;;;;;5073771;28;20112;-11
2022/09/02 05:51:24;;;;;;;8.65;4.20;;;17.90;78.40;;;;;;5073461;28;20031;-11
2022/09/02 05:53:56;;;;;;;6.50;4.93;;;18.20;77.50;;;;;;5073750;28;20036;-11
2022/09/02 05:56:23;;;;;;;8.38;4.57;;;18.40;77.40;;;;;;5073642;28;20035;-12
2022/09/02 05:58:50;;;;;;;8.15;5.25;;;18.60;76.60;;;;;;5073029;28;20131;-12
2022/09/02 06:01:18;;;;;;;8.30;5.22;;;18.80;76.70;;;;;;5073818;28;20036;-13
2022/09/02 06:03:46;;;;;;;7.25;5.22;;;19.00;77.00;;;;;;5073557;28;20102;-12
2022/09/02 06:06:12;;;;;;;7.32;5.50;;;19.20;76.30;;;;;;5073311;28;20034;-12
2022/09/02 06:08:39;;;;;;;7.88;5.43;;;19.30;75.40;;;;;;5073119;28;20036;-11
2022/09/02 06:11:09;;;;;;;8.73;5.47;;;19.30;74.80;;;;;;5073057;28;20480;-12
2022/09/02 06:13:37;;;;;;;11.07;4.90;;;19.40;74.90;;;;;;5073161;28;20024;-12
2022/09/02 06:16:07;;;;;;;7.95;4.28;;;19.50;74.50;;;;;;5073101;28;20028;-12
2022/09/02 06:18:34;;;;;;;7.07;4.90;;;19.50;74.40;;;;;;5073422;28;20021;-12
2022/09/02 06:21:01;;;;;;;10.07;6.10;;;19.70;73.60;;;;;;5073119;28;20036;-11
2022/09/02 06:23:27;;;;;;;6.10;4.15;;;19.70;73.80;;;;;;5073025;28;20025;-12
2022/09/02 06:25:53;;;;;;;8.75;5.15;;;19.80;73.70;;;;;;5073350;28;20059;-13
2022/09/02 06:28:19;;;;;;;7.45;4.60;;;19.80;73.20;;;;;;5071762;28;20491;-12
2022/09/02 06:30:47;;;;;;;8.15;4.88;;;19.70;73.20;;;;;;5073089;28;20477;-12
2022/09/02 06:33:13;;;;;;;7.55;4.55;;;19.70;72.90;;;;;;5073254;28;20037;-12
2022/09/02 06:35:43;;;;;;;5.72;4.18;;;19.70;72.80;;;;;;5071687;28;20040;-12
2022/09/02 06:38:10;;;;;;;5.88;4.53;;;19.70;72.80;;;;;;5072820;28;20039;-11
2022/09/02 06:40:44;;;;;;;5.55;3.88;;;19.70;72.70;;;;;;5072814;28;20032;-12
2022/09/02 06:43:10;;;;;;;6.95;4.07;;;19.70;72.80;;;;;;5072720;28;20571;-12
2022/09/02 06:45:40;;;;;;;6.05;4.30;;;19.80;72.90;;;;;;5075356;28;20108;-12
2022/09/02 06:48:06;;;;;;;6.60;4.30;;;19.80;72.40;;;;;;5077098;28;20043;-12
2022/09/02 06:50:36;;;;;;;6.55;4.50;;;19.80;72.00;;;;;;5076867;28;20484;-12
2022/09/02 06:53:04;;;;;;;8.18;4.55;;;19.90;72.30;;;;;;5076575;28;20072;-12
2022/09/02 06:55:30;;;;;;;6.05;4.10;;;19.90;72.00;;;;;;5076717;28;20028;-11
2022/09/02 06:57:56;;;;;;;4.32;3.60;;;19.90;72.00;;;;;;5076690;28;20035;-12
2022/09/02 07:00:22;;;;;;;7.65;4.82;;;20.10;71.20;;;;;;5076468;28;20048;-12
2022/09/02 07:05:08;;;;;;;7.07;3.65;;;20.20;71.10;;;;;;5076551;28;20038;-13
2022/09/02 07:05:34;;;;;;;6.38;4.13;;;20.30;70.70;;;;;;5076640;28;20469;-11
2022/09/02 07:08:00;;;;;;;3.80;3.08;;;20.40;70.90;;;;;;5076443;28;20025;-11
2022/09/02 07:10:26;;;;;;;5.65;3.78;;;20.50;70.70;;;;;;5076430;28;20028;-12
2022/09/02 07:12:52;;;;;;;7.05;4.22;;;20.50;70.20;;;;;;5074997;28;20024;-11
2022/09/02 07:15:18;;;;;;;7.25;3.80;;;20.60;69.90;;;;;;5076647;28;20024;-11
2022/09/02 07:17:44;;;;;;;6.10;3.60;;;20.60;69.60;;;;;;5076268;28;20485;-12
2022/09/02 07:20:11;;;;;;;5.38;3.88;;;20.70;69.40;;;;;;5076238;28;20039;-13
2022/09/02 07:22:38;;;;;;;6.13;3.70;;;20.80;68.60;;;;;;5076354;28;20025;-11
2022/09/02 07:25:05;;;;;;;6.18;3.50;;;20.90;68.30;;;;;;5075961;28;20028;-11
2022/09/02 07:27:36;;;;;;;5.53;3.53;;;21.20;68.00;;;;;;5076171;28;20012;-12
2022/09/02 07:30:05;;;;;;;5.13;4.00;;;21.40;67.60;;;;;;5076399;28;20040;-12
2022/09/02 07:32:31;;;;;;;6.25;3.97;;;21.60;65.10;;;;;;5076301;28;20025;-11
2022/09/02 07:34:57;;;;;;;9.85;3.85;;;21.70;64.00;;;;;;5076643;28;20056;-12
2022/09/02 07:37:23;;;;;;;6.85;3.92;;;21.80;64.10;;;;;;5075809;28;20071;-11
2022/09/02 07:39:50;;;;;;;6.30;3.53;;;21.80;64.00;;;;;;5076247;28;20040;-12
2022/09/02 07:42:16;;;;;;;7.00;3.67;;;21.90;61.30;;;;;;5076395;28;20021;-12
2022/09/02 07:44:42;;;;;;;7.32;3.70;;;22.00;59.90;;;;;;5075821;28;20044;-13
2022/09/02 07:47:09;;;;;;;6.32;3.35;;;22.10;60.40;;;;;;5075608;28;20033;-12
2022/09/02 07:49:34;;;;;;;4.93;2.72;;;22.20;60.90;;;;;;5074834;28;20028;-12
2022/09/02 07:52:00;;;;;;;3.75;3.25;;;22.40;60.90;;;;;;5075974;28;20507;-12
2022/09/02 07:54:27;;;;;;;5.18;3.40;;;22.60;60.30;;;;;;5075612;28;20021;-11
2022/09/02 07:56:53;;;;;;;4.43;3.25;;;22.80;60.00;;;;;;5074474;28;20124;-12
2022/09/02 07:59:20;;;;;;;6.00;3.10;;;23.00;58.10;;;;;;5075613;28;20056;-11
2022/09/02 08:01:48;;;;;;;4.85;2.92;;;23.40;58.70;;;;;;5075462;28;20029;-11
2022/09/02 08:04:16;;;;;;;3.22;2.92;;;23.70;57.90;;;;;;5075496;28;20028;-11
2022/09/02 08:06:43;;;;;;;4.45;3.30;;;24.00;57.90;;;;;;5075350;28;20484;-12
2022/09/02 08:09:10;;;;;;;4.03;3.10;;;24.40;55.20;;;;;;5075483;28;20024;-12
2022/09/02 08:11:38;;;;;;;5.28;2.97;;;24.70;56.00;;;;;;5075339;28;20033;-12
2022/09/02 08:14:10;;;;;;;4.85;2.88;;;24.90;53.80;;;;;;5075326;28;20101;-11
2022/09/02 08:16:37;;;;;;;5.68;2.75;;;25.10;52.50;;;;;;5075637;28;20036;-11
2022/09/02 08:19:05;;;;;;;5.88;3.00;;;25.30;52.60;;;;;;5075002;28;20504;-12
2022/09/02 08:21:31;;;;;;;3.75;2.72;;;25.60;52.00;;;;;;5075358;28;20094;-12
2022/09/02 08:23:59;;;;;;;3.38;2.25;;;25.80;50.90;;;;;;5075111;28;20108;-12
2022/09/02 08:26:27;;;;;;;3.72;2.60;;;25.90;49.60;;;;;;5075336;28;20028;-12
2022/09/02 08:28:54;;;;;;;5.05;2.70;;;26.00;48.40;;;;;;5074822;28;20393;-12
2022/09/02 08:31:21;;;;;;;3.75;2.55;;;26.20;48.50;;;;;;5074948;28;20039;-12
2022/09/02 08:33:47;;;;;;;4.55;2.50;;;26.30;48.70;;;;;;5075269;28;20024;-11
2022/09/02 08:36:14;;;;;;;4.75;2.25;;;26.40;48.70;;;;;;5074909;28;20028;-11
2022/09/02 08:38:41;;;;;;;4.45;2.70;;;26.50;47.70;;;;;;5074695;28;20044;-10
2022/09/02 08:41:32;;;;;;;3.20;2.67;;;26.80;47.00;;;;;;5075172;28;20033;-12
2022/09/02 08:44:00;;;;;;;5.65;2.47;;;26.90;45.80;;;;;;5075057;28;20025;-11
2022/09/02 08:46:30;;;;;;;3.45;2.58;;;27.10;44.60;;;;;;5073396;28;20476;-11
2022/09/02 08:49:03;;;;;;;5.47;2.10;;;27.40;44.90;;;;;;5074440;28;20039;-11
2022/09/02 08:51:36;;;;;;;3.78;2.00;;;27.70;43.40;;;;;;5074928;28;20037;-11
2022/09/02 08:54:08;;;;;;;4.05;1.98;;;27.90;41.10;;;;;;5074547;28;20108;-12
2022/09/02 08:56:34;;;;;;;3.15;2.17;;;28.10;41.70;;;;;;5074824;28;20025;-12
2022/09/02 08:59:03;;;;;;;4.93;2.40;;;28.40;41.30;;;;;;5074312;28;20172;-12
2022/09/02 09:01:50;;;;;;;5.35;2.35;;;28.40;41.40;;;;;;5074584;28;20488;-12
2022/09/02 09:04:49;;;;;;;4.78;2.58;;;28.20;42.60;;;;;;5074882;28;20020;-11
2022/09/02 09:07:21;;;;;;;3.22;2.20;;;28.20;41.90;;;;;;5074338;28;20029;-12
2022/09/02 09:10:14;;;;;;;2.90;2.00;;;28.40;40.00;;;;;;5074169;28;20024;-12
2022/09/02 09:12:52;;;;;;;2.97;1.85;;;28.70;38.70;;;;;;5074968;28;20123;-12
2022/09/02 09:15:44;;;;;;;4.63;2.20;;;28.90;40.00;;;;;;5074405;28;20024;-11
2022/09/02 09:18:16;;;;;;;4.35;2.38;;;29.30;40.00;;;;;;5073553;28;20074;-11
2022/09/02 09:20:43;;;;;;;3.78;2.10;;;29.50;38.80;;;;;;5074538;28;20732;-11
2022/09/02 09:23:29;;;;;;;2.60;2.05;;;29.90;39.30;;;;;;5073604;28;20040;-12
2022/09/02 09:26:05;;;;;;;3.67;2.20;;;30.00;37.80;;;;;;5073914;28;20485;-13
2022/09/02 09:28:36;;;;;;;2.80;1.95;;;29.90;37.10;;;;;;5074190;28;20032;-11
2022/09/02 09:31:02;;;;;;;3.33;1.90;;;30.00;37.80;;;;;;5073631;28;20032;-12
2022/09/02 09:33:28;;;;;;;3.85;2.40;;;30.20;37.30;;;;;;5073779;28;20033;-12
2022/09/02 09:35:55;;;;;;;3.80;1.60;;;30.30;35.90;;;;;;5074341;28;20021;-12
2022/09/02 09:38:30;;;;;;;4.35;1.95;;;30.40;37.40;;;;;;5073864;28;20041;-11
2022/09/02 09:41:29;;;;;;;2.47;1.77;;;30.20;35.00;;;;;;5073420;28;20031;-11
2022/09/02 09:43:56;;;;;;;1.90;1.80;;;30.40;36.10;;;;;;5071586;28;20068;-12
2022/09/02 09:46:31;;;;;;;4.03;2.00;;;30.20;36.50;;;;;;5071629;28;20048;-11
2022/09/02 09:48:57;;;;;;;3.30;1.95;;;30.10;36.10;;;;;;5071287;28;20048;-12
2022/09/02 09:51:23;;;;;;;3.22;1.85;;;30.10;36.10;;;;;;5071332;28;20446;-12
2022/09/02 09:53:49;;;;;;;1.73;1.63;;;30.00;35.50;;;;;;5071163;28;20597;-13
2022/09/02 09:56:15;;;;;;;2.15;1.67;;;29.80;36.60;;;;;;5071509;28;20032;-12
2022/09/02 09:58:45;;;;;;;3.15;1.92;;;29.70;36.40;;;;;;5071071;28;20036;-12
2022/09/02 10:01:16;;;;;;;2.42;1.80;;;30.10;36.00;;;;;;5071740;28;20052;-12
2022/09/02 10:03:54;;;;;;;1.67;1.58;;;30.40;36.30;;;;;;5072142;28;20020;-12
2022/09/02 10:06:42;;;;;;;2.30;1.40;;;30.70;36.50;;;;;;5071314;28;20037;-12
2022/09/02 10:09:13;;;;;;;4.22;2.17;;;30.90;33.20;;;;;;5071090;28;20025;-11
2022/09/02 10:11:54;;;;;;;2.22;2.00;;;30.80;34.50;;;;;;5071129;28;20072;-12
2022/09/02 10:14:20;;;;;;;1.92;1.73;;;30.40;34.20;;;;;;5071751;28;20492;-12
2022/09/02 10:17:10;;;;;;;2.20;1.70;;;30.60;34.90;;;;;;5071671;28;20047;-13
2022/09/02 10:19:52;;;;;;;6.10;1.92;;;31.20;32.50;;;;;;5072256;28;20481;-12
2022/09/02 10:22:36;;;;;;;2.03;1.80;;;31.70;32.20;;;;;;5073547;28;20036;-11
2022/09/02 10:25:27;;;;;;;3.50;1.70;;;32.20;32.70;;;;;;5073399;28;20016;-12
2022/09/02 10:28:26;;;;;;;3.72;1.90;;;32.60;31.20;;;;;;5073295;28;20051;-12
2022/09/02 10:31:00;;;;;;;4.03;1.98;;;33.00;32.30;;;;;;5072776;28;20048;-11
2022/09/02 10:33:44;;;;;;;3.42;1.80;;;33.30;32.00;;;;;;5073868;28;20039;-12
2022/09/02 10:36:16;;;;;;;3.47;2.17;;;33.40;31.40;;;;;;5073561;28;20044;-11
2022/09/02 10:38:47;;;;;;;2.22;1.90;;;33.40;31.90;;;;;;5072875;28;20473;-12
2022/09/02 10:41:30;;;;;;;2.40;1.80;;;33.40;30.90;;;;;;5073422;28;20477;-13
2022/09/02 10:44:11;;;;;;;;;;;33.50;31.80;;;;;;5073673;28;20078;-12
2022/09/02 10:46:48;;;;;;;2.88;1.63;;;33.60;32.00;;;;;;5073071;28;19904;-12
2022/09/02 10:49:14;;;;;;;3.25;1.90;;;33.40;31.90;;;;;;5072814;28;20115;-12
2022/09/02 10:52:06;;;;;;;5.18;1.77;;;33.30;32.80;;;;;;5073083;28;20029;-12
2022/09/02 10:54:39;;;;;;;2.95;2.10;;;33.10;32.90;;;;;;5073096;28;20107;-11
2022/09/02 10:57:19;;;;;;;2.47;1.70;;;32.90;33.30;;;;;;5071385;28;20024;-11
2022/09/02 10:59:56;;;;;;;1.95;1.85;;;32.60;33.00;;;;;;5072479;28;20049;-12
2022/09/02 11:02:36;;;;;;;4.35;1.80;;;32.50;32.80;;;;;;5072824;28;20488;-12
2022/09/02 11:05:20;;;;;;;3.42;2.05;;;32.50;32.90;;;;;;5072525;28;20469;-12
2022/09/02 11:07:50;;;;;;;2.75;2.00;;;32.60;32.50;;;;;;5072657;28;20024;-12
2022/09/02 11:10:42;;;;;;;2.75;1.90;;;32.90;31.80;;;;;;5072928;28;20027;-11
2022/09/02 11:13:28;;;;;;;4.03;1.63;;;33.50;32.10;;;;;;5072105;28;20036;-11
2022/09/02 11:15:56;;;;;;;1.83;1.73;;;34.10;29.50;;;;;;5072843;28;20090;-12
2022/09/02 11:18:49;;;;;;;3.63;2.20;;;34.60;31.70;;;;;;5072862;28;20079;-12
2022/09/02 11:21:21;;;;;;;;;;;34.90;30.20;;;;;;5073240;28;20043;-11
2022/09/02 11:24:14;;;;;;;1.95;1.85;;;35.00;30.70;;;;;;5072353;28;20352;-11
2022/09/02 11:26:51;;;;;;;2.15;1.55;;;35.40;28.90;;;;;;5071470;28;20075;-11
2022/09/02 11:29:24;;;;;;;3.85;2.10;;;35.70;30.50;;;;;;5072789;28;20516;-11
2022/09/02 11:32:18;;;;;;;2.05;1.85;;;35.90;29.70;;;;;;5075052;28;20471;-12
2022/09/02 11:34:57;;;;;;;3.60;1.88;;;36.00;29.60;;;;;;5076099;28;20021;-11
2022/09/02 11:37:30;;;;;;;2.92;1.80;;;35.90;29.10;;;;;;5075930;28;20387;-12
2022/09/02 11:40:07;;;;;;;2.00;1.77;;;36.20;29.60;;;;;;5076342;28;20035;-11
2022/09/02 11:43:00;;;;;;;3.05;2.05;;;36.60;29.30;;;;;;5076218;28;20106;-11
2022/09/02 11:45:32;;;;;;;;;;;36.90;29.00;;;;;;5076528;28;20033;-12
2022/09/02 11:48:14;;;;;;;2.17;1.90;;;37.30;27.00;;;;;;5075801;28;19911;-12
2022/09/02 11:50:40;;;;;;;;;;;37.60;28.00;;;;;;5076256;28;20032;-12
2022/09/02 11:53:34;;;;;;;3.63;2.15;;;37.90;27.70;;;;;;5075538;28;20322;-12
2022/09/02 11:56:19;;;;;;;2.22;1.77;;;38.10;26.90;;;;;;5075732;28;20029;-13
2022/09/02 11:58:51;;;;;;;2.28;1.83;;;38.20;26.70;;;;;;5075798;28;20070;-12
2022/09/02 12:01:37;;;;;;;2.75;1.92;;;38.00;27.30;;;;;;5075556;28;20054;-12
2022/09/02 12:04:25;;;;;;;2.13;1.90;;;38.10;26.20;;;;;;5075902;28;20487;-13
2022/09/02 12:07:06;;;;;;;2.03;1.90;;;37.90;27.80;;;;;;5075602;28;20052;-12
2022/09/02 12:09:44;;;;;;;4.05;2.15;;;37.90;27.50;;;;;;5075395;28;20396;-12
2022/09/02 12:12:40;;;;;;;2.30;2.10;;;38.00;26.00;;;;;;5075692;28;20037;-12
2022/09/02 12:15:10;;;;;;;2.22;2.00;;;38.00;26.20;;;;;;5074046;28;20032;-12
2022/09/02 12:18:13;;;;;;;4.80;2.20;;;38.20;26.00;;;;;;5075460;28;20419;-12
2022/09/02 12:20:40;;;;;;;2.50;2.13;;;38.40;25.90;;;;;;5073038;28;20143;-11
2022/09/02 12:23:29;;;;;;;3.10;2.20;;;38.50;25.90;;;;;;5072855;28;20488;-12
2022/09/02 12:26:00;;;;;;;2.30;2.10;;;38.80;25.60;;;;;;5073548;28;20534;-12
2022/09/02 12:28:29;;;;;;;5.45;2.42;;;38.90;25.60;;;;;;5073044;28;20020;-12
2022/09/02 12:31:06;;;;;;;2.40;2.20;;;38.90;25.00;;;;;;5073562;28;20040;-11
2022/09/02 12:33:36;;;;;;;2.55;2.10;;;38.70;25.20;;;;;;5072994;28;20104;-11
2022/09/02 12:36:03;;;;;;;2.22;2.00;;;38.50;25.50;;;;;;5072904;28;20159;-11
2022/09/02 12:38:35;;;;;;;2.20;2.00;;;38.40;26.10;;;;;;5072815;28;20032;-11
2022/09/02 12:41:04;;;;;;;2.58;1.88;;;38.50;25.30;;;;;;5072453;28;20044;-11
2022/09/02 12:43:46;;;;;;;3.00;2.03;;;38.60;25.30;;;;;;5072128;28;20032;-12
2022/09/02 12:46:30;;;;;;;3.10;1.77;;;38.60;25.20;;;;;;5072689;28;20127;-12
2022/09/02 12:49:21;;;;;;;4.30;2.20;;;38.60;25.40;;;;;;5072557;28;20369;-13
2022/09/02 12:51:53;;;;;;;3.50;2.20;;;38.80;25.40;;;;;;5072606;28;20028;-12
2022/09/02 12:54:37;;;;;;;2.95;1.90;;;39.00;24.80;;;;;;5072503;28;20535;-12
2022/09/02 12:57:07;;;;;;;2.55;1.83;;;39.10;24.60;;;;;;5073460;28;20040;-12
2022/09/02 12:59:40;;;;;;;4.82;2.28;;;39.20;24.80;;;;;;5074185;28;20053;-12
2022/09/02 13:02:29;;;;;;;2.78;1.90;;;39.20;24.90;;;;;;5074650;28;20033;-12
2022/09/02 13:05:20;;;;;;;4.40;2.10;;;39.00;25.40;;;;;;5074162;28;20025;-12
2022/09/02 13:08:05;;;;;;;2.15;1.95;;;38.90;25.50;;;;;;5073560;28;20029;-12
2022/09/02 13:10:56;;;;;;;3.03;1.92;;;38.70;26.10;;;;;;5074197;28;20035;-12